Time;durP1;ratioP1;P1;durP2;ratioP2;P2;SDS_P1;SDS_P2;PMS_P1;PMS_P2;Temp;Humidity;BMP_temperature;BMP_pressure;BME280_temperature;BME280_humidity;BME280_pressure;Samples;Min_cycle;Max_cycle;Signal;HPM_P1;HPM_P2
2020/12/27 00:00:12;;;;;;;15.63;9.07;;;18.20;54.30;;;;;;5010885;28;20040;-64
2020/12/27 00:02:37;;;;;;;16.30;9.35;;;18.20;54.20;;;;;;5037019;28;20140;-65
2020/12/27 00:05:04;;;;;;;18.50;9.93;;;18.20;54.20;;;;;;5021021;28;20129;-64
2020/12/27 00:07:30;;;;;;;13.05;8.70;;;18.20;54.10;;;;;;5041423;28;20087;-64
2020/12/27 00:09:55;;;;;;;14.38;9.43;;;18.20;54.20;;;;;;5026632;28;20562;-63
2020/12/27 00:12:21;;;;;;;16.42;9.55;;;18.20;54.10;;;;;;5044270;28;20043;-64
2020/12/27 00:14:46;;;;;;;15.40;9.73;;;18.20;54.10;;;;;;5015352;28;20112;-65
2020/12/27 00:17:12;;;;;;;13.60;8.52;;;18.20;54.20;;;;;;5016367;28;20049;-64
2020/12/27 00:19:38;;;;;;;14.95;9.35;;;18.20;54.10;;;;;;5033470;28;20029;-64
2020/12/27 00:22:04;;;;;;;15.45;8.90;;;18.20;54.10;;;;;;5024906;28;20068;-63
2020/12/27 00:24:29;;;;;;;13.80;8.48;;;18.20;54.00;;;;;;5043766;28;20056;-64
2020/12/27 00:26:55;;;;;;;13.65;7.97;;;18.20;54.00;;;;;;5015194;28;20033;-64
2020/12/27 00:29:21;;;;;;;14.77;8.10;;;18.20;54.00;;;;;;5032049;28;20034;-64
2020/12/27 00:31:49;;;;;;;13.23;8.45;;;18.20;54.00;;;;;;5030517;28;20045;-64
2020/12/27 00:34:15;;;;;;;12.57;7.85;;;18.20;54.00;;;;;;5025977;28;20709;-64
2020/12/27 00:36:41;;;;;;;16.40;8.80;;;18.20;54.00;;;;;;5024639;28;20033;-64
2020/12/27 00:39:06;;;;;;;13.52;7.25;;;18.20;53.90;;;;;;5014158;28;20060;-64
2020/12/27 00:41:32;;;;;;;13.38;8.18;;;18.20;53.90;;;;;;5018881;28;20041;-63
2020/12/27 00:43:58;;;;;;;10.85;7.70;;;18.10;53.80;;;;;;5037313;28;20041;-64
2020/12/27 00:46:23;;;;;;;12.95;7.97;;;18.10;53.80;;;;;;5041241;28;20095;-64
2020/12/27 00:48:49;;;;;;;13.00;7.25;;;18.20;53.90;;;;;;5038201;28;20099;-64
2020/12/27 00:51:22;;;;;;;10.65;6.88;;;18.10;53.90;;;;;;5010196;28;20408;-64
2020/12/27 00:53:47;;;;;;;11.07;7.47;;;18.10;53.80;;;;;;5020332;28;20519;-64
2020/12/27 00:56:13;;;;;;;12.13;6.82;;;18.10;53.80;;;;;;5036578;28;20124;-64
2020/12/27 00:58:39;;;;;;;11.02;7.35;;;18.10;53.70;;;;;;5026346;28;20385;-64
2020/12/27 01:01:06;;;;;;;12.07;7.13;;;18.10;53.70;;;;;;5028747;28;20508;-64
2020/12/27 01:03:32;;;;;;;12.55;7.43;;;18.20;53.80;;;;;;5034432;28;20052;-65
2020/12/27 01:05:58;;;;;;;12.48;6.97;;;18.10;53.70;;;;;;5019601;28;20048;-64
2020/12/27 01:08:23;;;;;;;14.35;7.85;;;18.10;53.70;;;;;;5041709;28;20038;-64
2020/12/27 01:10:49;;;;;;;13.20;7.30;;;18.10;54.10;;;;;;5044893;28;20049;-64
2020/12/27 01:13:14;;;;;;;9.68;5.97;;;18.10;53.70;;;;;;5026622;28;20129;-63
2020/12/27 01:15:40;;;;;;;13.10;7.28;;;18.10;53.60;;;;;;5020359;28;20052;-64
2020/12/27 01:18:06;;;;;;;11.60;6.68;;;18.10;53.70;;;;;;5022923;28;20037;-64
2020/12/27 01:20:32;;;;;;;10.70;6.20;;;18.10;53.60;;;;;;5025129;28;20037;-64
2020/12/27 01:22:57;;;;;;;11.35;6.88;;;18.10;53.60;;;;;;5008287;28;20042;-64
2020/12/27 01:25:23;;;;;;;12.82;6.57;;;18.10;53.50;;;;;;5028637;28;20036;-63
2020/12/27 01:27:48;;;;;;;10.20;5.88;;;18.10;53.60;;;;;;5031886;28;20117;-64
2020/12/27 01:30:14;;;;;;;11.07;6.13;;;18.10;53.50;;;;;;5036639;28;20038;-65
2020/12/27 01:32:41;;;;;;;13.00;7.15;;;18.10;53.60;;;;;;5025575;28;20055;-63
2020/12/27 01:35:06;;;;;;;11.63;6.40;;;18.10;53.60;;;;;;5026735;28;20087;-64
2020/12/27 01:37:32;;;;;;;9.52;6.22;;;18.10;53.60;;;;;;5026247;28;20032;-64
2020/12/27 01:39:57;;;;;;;11.80;6.45;;;18.10;53.60;;;;;;5019217;28;20690;-64
2020/12/27 01:42:23;;;;;;;11.05;6.40;;;18.10;53.60;;;;;;5026027;28;20451;-64
2020/12/27 01:44:48;;;;;;;9.30;5.90;;;18.10;53.60;;;;;;5025900;28;20503;-64
2020/12/27 01:47:15;;;;;;;10.55;6.00;;;18.00;53.60;;;;;;5009573;28;20040;-64
2020/12/27 01:49:44;;;;;;;8.15;5.35;;;18.10;53.60;;;;;;5018738;28;20437;-64
2020/12/27 01:52:09;;;;;;;8.23;5.72;;;18.10;53.60;;;;;;5035582;28;20052;-64
2020/12/27 01:54:35;;;;;;;7.72;5.00;;;18.10;53.70;;;;;;5037902;28;20037;-64
2020/12/27 01:57:01;;;;;;;8.43;5.20;;;18.00;53.70;;;;;;5040884;28;20518;-65
2020/12/27 01:59:28;;;;;;;10.13;5.30;;;18.00;53.70;;;;;;5023597;28;20048;-64
2020/12/27 02:01:53;;;;;;;8.07;4.85;;;18.00;53.60;;;;;;5037101;28;20772;-65
2020/12/27 02:04:19;;;;;;;7.05;4.57;;;18.00;53.60;;;;;;5025698;28;20554;-64
2020/12/27 02:06:44;;;;;;;8.02;4.55;;;18.10;53.70;;;;;;5011589;28;20042;-64
2020/12/27 02:09:12;;;;;;;7.22;4.63;;;18.10;53.70;;;;;;5007196;28;20060;-64
2020/12/27 02:11:37;;;;;;;7.65;4.07;;;18.10;53.60;;;;;;5025672;28;20033;-64
2020/12/27 02:14:03;;;;;;;8.25;4.95;;;18.10;53.70;;;;;;5027462;28;20039;-64
2020/12/27 02:16:29;;;;;;;6.97;4.70;;;18.10;53.70;;;;;;5022414;28;20033;-64
2020/12/27 02:19:01;;;;;;;6.68;4.57;;;18.00;53.60;;;;;;5029612;28;20354;-64
2020/12/27 02:21:27;;;;;;;7.47;4.80;;;18.10;53.60;;;;;;5021315;28;20507;-64
2020/12/27 02:23:56;;;;;;;7.40;4.22;;;18.00;53.50;;;;;;5006643;28;20037;-64
2020/12/27 02:26:22;;;;;;;8.65;4.85;;;18.10;53.50;;;;;;5014395;28;20128;-64
2020/12/27 02:28:48;;;;;;;5.35;4.00;;;18.10;53.50;;;;;;5020089;28;20174;-64
2020/12/27 02:31:13;;;;;;;6.63;4.07;;;18.10;53.40;;;;;;5016531;28;20048;-64
2020/12/27 02:33:39;;;;;;;5.72;3.90;;;18.00;53.40;;;;;;5013933;28;20040;-64
2020/12/27 02:36:04;;;;;;;5.78;4.32;;;18.10;53.40;;;;;;5014300;28;20549;-64
2020/12/27 02:38:30;;;;;;;6.65;4.32;;;18.10;53.40;;;;;;5026530;28;20164;-65
2020/12/27 02:40:55;;;;;;;7.10;4.07;;;18.10;53.40;;;;;;5026658;28;20083;-64
2020/12/27 02:43:21;;;;;;;6.93;4.45;;;18.10;53.30;;;;;;5033427;28;20035;-64
2020/12/27 02:45:47;;;;;;;6.07;3.75;;;18.10;53.30;;;;;;5019788;28;20492;-64
2020/12/27 02:48:13;;;;;;;5.32;3.45;;;18.10;53.20;;;;;;5006540;28;20084;-64
2020/12/27 02:50:38;;;;;;;7.65;3.97;;;18.10;53.30;;;;;;5041725;28;20057;-64
2020/12/27 02:53:04;;;;;;;7.13;3.88;;;18.10;53.30;;;;;;5027287;28;20044;-63
2020/12/27 02:55:30;;;;;;;7.82;4.20;;;18.10;53.20;;;;;;5032448;28;20036;-64
2020/12/27 02:57:56;;;;;;;8.18;4.07;;;18.00;53.20;;;;;;5024285;28;20040;-64
2020/12/27 03:00:21;;;;;;;5.13;3.85;;;18.00;53.10;;;;;;5026665;28;20568;-64
2020/12/27 03:02:47;;;;;;;6.53;3.50;;;18.00;53.10;;;;;;5043438;28;20037;-64
2020/12/27 03:05:12;;;;;;;5.15;3.60;;;18.00;53.20;;;;;;5026912;28;20029;-63
2020/12/27 03:07:38;;;;;;;6.45;3.90;;;17.90;53.20;;;;;;5032268;28;20037;-64
2020/12/27 03:10:04;;;;;;;5.65;2.92;;;17.90;53.20;;;;;;5030933;28;20561;-64
2020/12/27 03:12:29;;;;;;;5.05;3.55;;;17.90;53.10;;;;;;5042037;28;20068;-64
2020/12/27 03:14:55;;;;;;;4.75;3.25;;;17.90;53.20;;;;;;5043274;28;20071;-64
2020/12/27 03:17:20;;;;;;;5.22;3.33;;;17.90;53.20;;;;;;5030146;28;20037;-65
2020/12/27 03:19:46;;;;;;;5.18;3.60;;;17.90;53.20;;;;;;5030005;28;20044;-65
2020/12/27 03:22:11;;;;;;;6.50;3.63;;;17.90;53.10;;;;;;5032081;28;20408;-64
2020/12/27 03:24:37;;;;;;;6.50;3.20;;;17.80;53.10;;;;;;5026484;28;20052;-65
2020/12/27 03:27:02;;;;;;;5.13;3.70;;;17.90;53.10;;;;;;5044242;28;20040;-64
2020/12/27 03:29:28;;;;;;;5.25;3.60;;;17.90;53.10;;;;;;5028188;28;20037;-63
2020/12/27 03:31:53;;;;;;;5.65;3.33;;;17.90;53.70;;;;;;5041104;28;20531;-63
2020/12/27 03:34:19;;;;;;;5.22;3.22;;;17.80;53.00;;;;;;5030376;28;20044;-63
2020/12/27 03:36:45;;;;;;;5.57;3.25;;;17.90;53.00;;;;;;5033686;28;20104;-64
2020/12/27 03:39:11;;;;;;;5.07;3.03;;;17.90;53.10;;;;;;5031464;28;20079;-63
2020/12/27 03:41:36;;;;;;;5.63;2.97;;;17.80;53.00;;;;;;5046549;28;20044;-64
2020/12/27 03:44:02;;;;;;;5.25;3.20;;;17.80;52.90;;;;;;5031275;28;20496;-64
2020/12/27 03:46:28;;;;;;;5.38;3.35;;;17.80;53.00;;;;;;5036564;28;20037;-65
2020/12/27 03:48:53;;;;;;;4.45;2.75;;;17.90;53.00;;;;;;5033518;28;20051;-63
2020/12/27 03:51:19;;;;;;;5.97;3.20;;;17.90;53.00;;;;;;5026571;28;20474;-63
2020/12/27 03:53:44;;;;;;;3.88;2.78;;;17.80;53.00;;;;;;5035425;28;20033;-64
2020/12/27 03:56:10;;;;;;;5.15;2.70;;;17.90;53.00;;;;;;5033487;28;20121;-63
2020/12/27 03:58:35;;;;;;;3.10;2.40;;;17.90;53.00;;;;;;5039779;28;20499;-64
2020/12/27 04:01:01;;;;;;;4.00;2.72;;;17.90;53.00;;;;;;5039885;28;20053;-64
2020/12/27 04:03:26;;;;;;;2.90;2.55;;;17.90;53.10;;;;;;5030245;28;20087;-64
2020/12/27 04:05:51;;;;;;;3.78;3.00;;;17.90;53.10;;;;;;5045703;28;20151;-63
2020/12/27 04:08:17;;;;;;;4.97;2.60;;;17.90;53.10;;;;;;5038585;28;20586;-63
2020/12/27 04:10:42;;;;;;;3.78;2.30;;;17.90;53.20;;;;;;5038960;28;20033;-63
2020/12/27 04:13:08;;;;;;;5.72;2.45;;;17.90;53.20;;;;;;5039112;28;20028;-64
2020/12/27 04:15:33;;;;;;;3.45;2.28;;;17.90;53.20;;;;;;5028383;28;21565;-64
2020/12/27 04:17:59;;;;;;;4.47;3.08;;;17.90;53.10;;;;;;5033815;28;20036;-64
2020/12/27 04:20:24;;;;;;;2.40;1.83;;;17.90;53.00;;;;;;5028624;28;20512;-64
2020/12/27 04:22:53;;;;;;;3.72;2.38;;;17.90;53.10;;;;;;5039344;28;20539;-63
2020/12/27 04:25:18;;;;;;;6.32;2.33;;;17.90;53.10;;;;;;5035782;28;20044;-63
2020/12/27 04:27:44;;;;;;;3.38;2.63;;;17.90;53.10;;;;;;5033507;28;20029;-64
2020/12/27 04:30:10;;;;;;;5.22;3.03;;;17.90;53.00;;;;;;5044213;28;20694;-65
2020/12/27 04:32:35;;;;;;;3.00;2.08;;;17.90;53.00;;;;;;5026351;28;20095;-65
2020/12/27 04:35:01;;;;;;;2.53;2.03;;;17.90;53.00;;;;;;5034493;28;20536;-64
2020/12/27 04:37:27;;;;;;;2.95;2.30;;;17.90;53.00;;;;;;5035923;28;20055;-64
2020/12/27 04:39:53;;;;;;;3.63;2.33;;;17.90;53.00;;;;;;5037484;28;20500;-63
2020/12/27 04:42:20;;;;;;;2.92;2.10;;;17.90;52.90;;;;;;5045370;28;20565;-64
2020/12/27 04:44:45;;;;;;;3.45;2.08;;;17.90;52.90;;;;;;5046343;28;20044;-64
2020/12/27 04:47:12;;;;;;;3.25;2.17;;;17.90;52.80;;;;;;5036221;28;20033;-64
2020/12/27 04:49:38;;;;;;;2.30;2.08;;;17.90;52.80;;;;;;5033393;28;20041;-64
2020/12/27 04:52:03;;;;;;;3.67;2.40;;;17.90;52.80;;;;;;5031290;28;20289;-65
2020/12/27 04:54:29;;;;;;;2.75;1.98;;;17.90;52.80;;;;;;5044818;28;20041;-64
2020/12/27 04:56:55;;;;;;;3.20;2.25;;;17.90;52.80;;;;;;5031136;28;20029;-64
2020/12/27 04:59:20;;;;;;;3.97;2.45;;;17.90;52.80;;;;;;5028508;28;20030;-64
2020/12/27 05:01:46;;;;;;;2.38;2.08;;;17.90;52.70;;;;;;5038586;28;20387;-63
2020/12/27 05:04:17;;;;;;;3.25;1.70;;;17.90;53.30;;;;;;5035761;28;20683;-63
2020/12/27 05:06:44;;;;;;;4.07;1.70;;;17.90;52.60;;;;;;5031081;28;20478;-65
2020/12/27 05:09:10;;;;;;;3.78;1.90;;;17.90;52.60;;;;;;5045288;28;20048;-64
2020/12/27 05:11:35;;;;;;;2.60;1.90;;;17.90;52.90;;;;;;5038090;28;20033;-64
2020/12/27 05:14:01;;;;;;;2.88;1.50;;;17.90;53.00;;;;;;5030903;28;20129;-65
2020/12/27 05:16:26;;;;;;;2.78;2.28;;;17.90;53.10;;;;;;5032954;28;20029;-63
2020/12/27 05:18:52;;;;;;;2.40;1.75;;;17.90;53.20;;;;;;5031466;28;20687;-63
2020/12/27 05:21:19;;;;;;;2.20;1.80;;;17.90;53.20;;;;;;5036729;28;20036;-65
2020/12/27 05:23:44;;;;;;;2.22;1.45;;;17.90;53.20;;;;;;5042803;28;20087;-63
2020/12/27 05:26:10;;;;;;;2.55;1.80;;;17.90;53.30;;;;;;5028841;28;20037;-63
2020/12/27 05:28:36;;;;;;;2.80;1.70;;;17.90;53.90;;;;;;5031608;28;20030;-64
2020/12/27 05:31:13;;;;;;;3.78;1.75;;;17.90;53.30;;;;;;5023853;28;20044;-64
2020/12/27 05:33:40;;;;;;;2.53;1.40;;;17.90;53.30;;;;;;5025381;28;20056;-64
2020/12/27 05:36:05;;;;;;;2.58;1.50;;;17.90;53.40;;;;;;5025598;28;20037;-64
2020/12/27 05:38:31;;;;;;;2.25;1.50;;;17.90;53.50;;;;;;5045050;28;20036;-64
2020/12/27 05:40:56;;;;;;;2.90;1.63;;;17.90;53.50;;;;;;5036663;28;20049;-65
2020/12/27 05:43:22;;;;;;;1.60;1.40;;;17.90;53.40;;;;;;5035053;28;20103;-64
2020/12/27 05:45:47;;;;;;;2.38;1.50;;;17.90;53.50;;;;;;5030991;28;20090;-63
2020/12/27 05:48:13;;;;;;;2.00;1.33;;;17.90;53.50;;;;;;5045294;28;20043;-64
2020/12/27 05:50:40;;;;;;;1.40;1.10;;;17.90;53.50;;;;;;5029144;28;20037;-63
2020/12/27 05:53:16;;;;;;;2.80;1.95;;;17.90;53.50;;;;;;5028647;28;20068;-64
2020/12/27 05:55:44;;;;;;;2.17;1.58;;;17.90;53.40;;;;;;5038490;28;20029;-64
2020/12/27 05:58:10;;;;;;;2.65;1.40;;;17.90;53.50;;;;;;5036376;28;20033;-64
2020/12/27 06:00:35;;;;;;;1.60;1.33;;;17.90;53.50;;;;;;5029127;28;20036;-64
2020/12/27 06:03:01;;;;;;;3.42;1.58;;;17.90;53.50;;;;;;5034804;28;20029;-64
2020/12/27 06:05:48;;;;;;;2.08;1.42;;;17.90;53.40;;;;;;5026093;28;20022;-64
2020/12/27 06:08:28;;;;;;;1.73;1.30;;;17.90;53.40;;;;;;5039752;28;20514;-64
2020/12/27 06:11:07;;;;;;;1.33;1.13;;;17.90;53.50;;;;;;5032233;28;20049;-64
2020/12/27 06:13:57;;;;;;;1.67;1.40;;;18.00;53.50;;;;;;5035163;28;20025;-64
2020/12/27 06:16:28;;;;;;;2.42;1.50;;;17.90;53.40;;;;;;5036564;28;20033;-64
2020/12/27 06:19:03;;;;;;;2.15;1.40;;;17.90;53.50;;;;;;5039532;28;20374;-64
2020/12/27 06:21:28;;;;;;;;;;;17.90;53.40;;;;;;5041458;28;20032;-64
2020/12/27 06:23:55;;;;;;;;;;;17.90;53.30;;;;;;5045816;28;19991;-64
2020/12/27 06:26:21;;;;;;;2.38;1.30;;;17.90;53.40;;;;;;5028512;28;20515;-64
2020/12/27 06:28:46;;;;;;;2.13;1.40;;;17.90;53.50;;;;;;5040445;28;20104;-65
2020/12/27 06:31:12;;;;;;;3.78;1.33;;;17.90;53.50;;;;;;5046327;28;20713;-64
2020/12/27 06:33:38;;;;;;;3.20;1.38;;;17.90;53.50;;;;;;5037267;28;20029;-64
2020/12/27 06:36:04;;;;;;;1.92;1.30;;;17.90;53.40;;;;;;5051526;28;20040;-64
2020/12/27 06:38:31;;;;;;;3.38;1.17;;;17.90;53.30;;;;;;5031042;28;20025;-63
2020/12/27 06:41:08;;;;;;;2.42;1.40;;;18.00;53.40;;;;;;5044442;28;20079;-64
2020/12/27 06:43:40;;;;;;;2.13;1.00;;;18.00;53.40;;;;;;5041626;28;20112;-64
2020/12/27 06:46:26;;;;;;;2.92;1.15;;;18.00;53.30;;;;;;5037724;28;20037;-64
2020/12/27 06:49:08;;;;;;;2.50;1.30;;;18.00;53.30;;;;;;5038662;28;20034;-65
2020/12/27 06:51:40;;;;;;;2.30;1.70;;;18.00;53.30;;;;;;5026908;28;20039;-64
2020/12/27 06:54:06;;;;;;;1.63;1.20;;;18.00;53.30;;;;;;5042621;28;20167;-64
2020/12/27 06:56:59;;;;;;;3.70;1.48;;;18.00;53.40;;;;;;5024324;28;20116;-64
2020/12/27 06:59:24;;;;;;;3.40;1.00;;;18.00;53.30;;;;;;5037733;28;20033;-64
2020/12/27 07:02:04;;;;;;;1.48;1.17;;;18.00;53.30;;;;;;5035881;28;20442;-65
2020/12/27 07:04:35;;;;;;;1.77;1.10;;;18.00;53.20;;;;;;5031800;28;20595;-64
2020/12/27 07:07:00;;;;;;;2.13;1.25;;;18.00;53.30;;;;;;5039574;28;20115;-63
2020/12/27 07:09:26;;;;;;;1.58;0.93;;;18.00;53.30;;;;;;5011307;28;20037;-63
2020/12/27 07:12:05;;;;;;;2.08;1.15;;;18.00;53.30;;;;;;5029371;28;20061;-63
2020/12/27 07:14:34;;;;;;;1.40;1.30;;;18.00;53.30;;;;;;5021570;28;20092;-64
2020/12/27 07:16:59;;;;;;;2.15;1.00;;;18.00;53.30;;;;;;5042711;28;20037;-64
2020/12/27 07:19:25;;;;;;;1.15;1.05;;;18.00;53.30;;;;;;5038361;28;20032;-64
2020/12/27 07:21:51;;;;;;;3.50;1.10;;;18.00;53.20;;;;;;5041160;28;20057;-64
2020/12/27 07:24:21;;;;;;;1.17;0.98;;;18.00;53.30;;;;;;5034047;28;20037;-64
2020/12/27 07:26:47;;;;;;;1.73;1.13;;;18.00;53.20;;;;;;5027946;28;20037;-64
2020/12/27 07:29:15;;;;;;;1.25;1.00;;;18.00;53.30;;;;;;5043286;28;20684;-64
2020/12/27 07:31:41;;;;;;;1.67;1.40;;;18.00;53.10;;;;;;5038823;28;20044;-65
2020/12/27 07:34:09;;;;;;;2.30;1.10;;;18.00;53.30;;;;;;5038727;28;20038;-64
2020/12/27 07:36:35;;;;;;;1.27;1.02;;;18.00;53.20;;;;;;5030455;28;20554;-63
2020/12/27 07:39:08;;;;;;;2.05;1.00;;;18.00;53.20;;;;;;5047787;28;20048;-63
2020/12/27 07:41:40;;;;;;;1.30;1.00;;;18.00;53.20;;;;;;5020657;28;20125;-64
2020/12/27 07:44:16;;;;;;;1.15;1.00;;;18.00;53.10;;;;;;5027451;28;20029;-63
2020/12/27 07:46:41;;;;;;;1.38;1.27;;;18.00;53.10;;;;;;5039514;28;20082;-62
2020/12/27 07:49:11;;;;;;;1.40;0.90;;;17.90;53.20;;;;;;5037747;28;20041;-63
2020/12/27 07:51:36;;;;;;;1.90;1.17;;;17.90;53.30;;;;;;5022001;28;20079;-62
2020/12/27 07:54:04;;;;;;;2.20;1.02;;;17.90;53.30;;;;;;5048376;28;20053;-61
2020/12/27 07:56:30;;;;;;;2.97;1.35;;;17.90;53.30;;;;;;5045540;28;20029;-63
2020/12/27 07:59:00;;;;;;;6.13;1.48;;;17.90;53.40;;;;;;5032283;28;20061;-64
2020/12/27 08:01:32;;;;;;;7.22;0.98;;;17.90;53.30;;;;;;5043071;28;20033;-63
2020/12/27 08:03:58;;;;;;;2.85;1.45;;;17.90;53.90;;;;;;5041784;28;20516;-65
2020/12/27 08:06:24;;;;;;;3.97;1.25;;;17.90;53.40;;;;;;5045709;28;20053;-64
2020/12/27 08:09:11;;;;;;;4.95;1.30;;;17.90;53.30;;;;;;5045567;28;20084;-65
2020/12/27 08:11:37;;;;;;;3.85;1.40;;;17.90;53.40;;;;;;5029845;28;20520;-65
2020/12/27 08:14:04;;;;;;;4.20;1.23;;;17.90;53.40;;;;;;5038221;28;20590;-65
2020/12/27 08:16:30;;;;;;;4.55;1.33;;;17.90;53.50;;;;;;5035427;28;20033;-65
2020/12/27 08:19:08;;;;;;;7.50;1.50;;;17.90;53.40;;;;;;5033779;28;20385;-64
2020/12/27 08:21:34;;;;;;;4.65;1.85;;;17.90;53.40;;;;;;5035158;28;20377;-65
2020/12/27 08:24:02;;;;;;;4.43;1.85;;;17.90;53.50;;;;;;5009612;28;20061;-65
2020/12/27 08:26:28;;;;;;;4.65;1.98;;;17.80;53.40;;;;;;5046019;28;20033;-66
2020/12/27 08:29:27;;;;;;;7.45;2.30;;;17.80;53.40;;;;;;5031051;28;20040;-64
2020/12/27 08:31:54;;;;;;;6.20;3.13;;;17.80;53.40;;;;;;5033401;28;20594;-65
2020/12/27 08:34:23;;;;;;;7.47;3.10;;;17.80;53.40;;;;;;5035072;28;20394;-65
2020/12/27 08:36:52;;;;;;;9.13;3.30;;;17.80;53.40;;;;;;5030497;28;20025;-64
2020/12/27 08:39:39;;;;;;;9.70;3.80;;;17.80;53.40;;;;;;5039026;28;20092;-64
2020/12/27 08:42:32;;;;;;;8.05;3.95;;;17.70;53.30;;;;;;5021240;28;20037;-65
2020/12/27 08:45:00;;;;;;;10.05;4.32;;;17.70;53.30;;;;;;5006969;28;20041;-65
2020/12/27 08:47:40;;;;;;;10.35;3.97;;;17.70;53.30;;;;;;5045059;28;20102;-64
2020/12/27 08:50:08;;;;;;;13.63;5.65;;;17.70;53.30;;;;;;5029228;28;20030;-64
2020/12/27 08:52:33;;;;;;;10.27;6.18;;;17.70;53.40;;;;;;5008842;28;20052;-64
2020/12/27 08:55:04;;;;;;;13.02;6.60;;;17.60;53.40;;;;;;5031131;28;20025;-64
2020/12/27 08:57:30;;;;;;;11.70;6.57;;;17.60;53.40;;;;;;5045349;28;20797;-66
2020/12/27 09:00:03;;;;;;;21.45;10.52;;;17.60;53.30;;;;;;5050565;28;20064;-64
2020/12/27 09:02:28;;;;;;;22.67;11.75;;;17.70;53.30;;;;;;5029126;28;20050;-63
2020/12/27 09:05:10;;;;;;;29.20;14.43;;;17.60;53.40;;;;;;5041278;28;20415;-62
2020/12/27 09:07:40;;;;;;;30.50;17.95;;;17.60;53.40;;;;;;5034932;28;20033;-62
2020/12/27 09:10:11;;;;;;;33.10;19.08;;;17.60;53.50;;;;;;5032027;28;20021;-63
2020/12/27 09:12:36;;;;;;;44.90;23.98;;;17.70;53.60;;;;;;5042171;28;20078;-62
2020/12/27 09:15:26;;;;;;;49.72;26.75;;;17.60;53.60;;;;;;5030149;28;20394;-63
2020/12/27 09:18:10;;;;;;;57.03;30.50;;;17.60;53.60;;;;;;5037148;28;20136;-63
2020/12/27 09:20:37;;;;;;;56.80;32.00;;;17.60;53.80;;;;;;5032098;28;20025;-64
2020/12/27 09:23:16;;;;;;;54.15;33.45;;;17.60;53.90;;;;;;5031821;28;20078;-63
2020/12/27 09:25:42;;;;;;;65.63;34.60;;;17.60;53.90;;;;;;5039846;28;20116;-63
2020/12/27 09:28:12;;;;;;;65.53;35.00;;;17.60;54.00;;;;;;5039355;28;20112;-63
2020/12/27 09:30:38;;;;;;;69.03;37.33;;;17.70;54.00;;;;;;5024828;28;20030;-63
2020/12/27 09:33:04;;;;;;;77.53;39.25;;;17.70;54.10;;;;;;5039782;28;20032;-62
2020/12/27 09:35:29;;;;;;;71.50;40.78;;;17.70;54.00;;;;;;5034760;28;20091;-63
2020/12/27 09:37:55;;;;;;;68.68;38.97;;;17.70;54.00;;;;;;5031543;28;20021;-62
2020/12/27 09:40:21;;;;;;;73.45;40.65;;;17.70;54.10;;;;;;5042414;28;20080;-63
2020/12/27 09:42:46;;;;;;;75.88;38.47;;;17.70;54.10;;;;;;5024433;28;20124;-62
2020/12/27 09:45:19;;;;;;;65.95;37.50;;;17.70;54.10;;;;;;5041731;28;20033;-62
2020/12/27 09:47:54;;;;;;;72.03;38.33;;;17.70;53.90;;;;;;5059842;28;20033;-60
2020/12/27 09:50:29;;;;;;;76.15;39.72;;;17.70;53.90;;;;;;5035781;28;20029;-62
2020/12/27 09:52:55;;;;;;;;;;;17.70;54.00;;;;;;5021552;28;20051;-61
2020/12/27 09:55:20;;;;;;;;;;;17.70;53.90;;;;;;5043156;28;20813;-61
2020/12/27 09:57:46;;;;;;;74.93;37.25;;;17.70;53.90;;;;;;5027040;28;19916;-62
2020/12/27 10:00:11;;;;;;;72.78;38.00;;;17.70;53.80;;;;;;5028266;28;20029;-62
2020/12/27 10:02:37;;;;;;;72.20;36.45;;;17.70;53.70;;;;;;5034469;28;20506;-62
2020/12/27 10:05:03;;;;;;;63.70;35.38;;;17.70;53.70;;;;;;5038381;28;20431;-62
2020/12/27 10:07:28;;;;;;;62.70;35.75;;;17.70;53.70;;;;;;5026349;28;20033;-62
2020/12/27 10:09:54;;;;;;;63.25;33.30;;;17.70;53.60;;;;;;5044811;28;20503;-62
2020/12/27 10:12:20;;;;;;;56.20;30.85;;;17.70;53.70;;;;;;5026512;28;20042;-63
2020/12/27 10:14:45;;;;;;;57.42;30.02;;;17.70;53.60;;;;;;5038463;28;20307;-62
2020/12/27 10:17:11;;;;;;;52.70;29.35;;;17.70;53.70;;;;;;5036712;28;20420;-63
2020/12/27 10:19:37;;;;;;;55.53;28.15;;;17.70;53.70;;;;;;5032843;28;20033;-62
2020/12/27 10:22:03;;;;;;;57.28;28.63;;;17.70;53.70;;;;;;5023281;28;20025;-61
2020/12/27 10:24:32;;;;;;;56.28;27.98;;;17.70;53.70;;;;;;5042552;28;20033;-62
2020/12/27 10:26:58;;;;;;;50.47;27.42;;;17.70;53.70;;;;;;5030211;28;20126;-62
2020/12/27 10:29:23;;;;;;;51.08;27.50;;;17.70;53.80;;;;;;5030339;28;20034;-62
2020/12/27 10:31:52;;;;;;;46.53;26.85;;;17.80;53.70;;;;;;5032699;28;20064;-62
2020/12/27 10:34:18;;;;;;;48.13;26.08;;;17.80;53.70;;;;;;5024869;28;20041;-62
2020/12/27 10:36:47;;;;;;;50.83;26.77;;;17.80;53.70;;;;;;5043260;28;20033;-62
2020/12/27 10:39:13;;;;;;;44.83;23.83;;;17.80;53.70;;;;;;5029758;28;20579;-62
2020/12/27 10:41:40;;;;;;;42.83;22.55;;;17.90;53.70;;;;;;5034205;28;20041;-62
2020/12/27 10:44:05;;;;;;;42.00;24.00;;;17.90;53.60;;;;;;5040580;28;20041;-62
2020/12/27 10:46:31;;;;;;;42.83;22.67;;;17.80;53.50;;;;;;5039389;28;20044;-63
2020/12/27 10:48:56;;;;;;;42.65;21.80;;;17.90;53.60;;;;;;5031904;28;20049;-64
2020/12/27 10:51:22;;;;;;;42.25;22.27;;;17.90;53.50;;;;;;5040537;28;20087;-62
2020/12/27 10:53:47;;;;;;;40.53;21.92;;;17.90;53.40;;;;;;5030556;28;20496;-62
2020/12/27 10:56:13;;;;;;;39.15;22.15;;;17.90;53.40;;;;;;5031558;28;20095;-62
2020/12/27 10:58:38;;;;;;;40.95;21.40;;;18.00;53.40;;;;;;5040958;28;20033;-63
2020/12/27 11:01:04;;;;;;;40.22;20.58;;;18.00;53.30;;;;;;5024673;28;20527;-64
2020/12/27 11:03:29;;;;;;;40.03;19.65;;;18.00;53.20;;;;;;5040626;28;20030;-65
2020/12/27 11:05:55;;;;;;;36.92;19.30;;;18.00;53.30;;;;;;5037725;28;20649;-62
2020/12/27 11:08:20;;;;;;;36.38;19.17;;;18.00;53.20;;;;;;5033843;28;20067;-63
2020/12/27 11:10:46;;;;;;;36.67;19.65;;;18.00;53.10;;;;;;5039495;28;20034;-62
2020/12/27 11:13:11;;;;;;;33.22;18.45;;;18.00;53.10;;;;;;5024832;28;20506;-62
2020/12/27 11:15:37;;;;;;;34.72;17.73;;;18.10;53.10;;;;;;5041180;28;20056;-61
2020/12/27 11:18:02;;;;;;;31.95;17.73;;;18.10;53.00;;;;;;5042529;28;20432;-63
2020/12/27 11:20:28;;;;;;;28.55;16.48;;;18.10;53.00;;;;;;5034338;28;20403;-62
2020/12/27 11:22:55;;;;;;;28.30;16.30;;;18.10;52.90;;;;;;5037085;28;20079;-61
2020/12/27 11:25:20;;;;;;;32.40;17.08;;;18.10;52.90;;;;;;5024266;28;20408;-61
2020/12/27 11:27:46;;;;;;;26.02;16.33;;;18.10;52.80;;;;;;5031767;28;20033;-62
2020/12/27 11:30:11;;;;;;;27.48;16.13;;;18.10;52.80;;;;;;5038491;28;20052;-62
2020/12/27 11:32:37;;;;;;;27.92;15.55;;;18.10;52.80;;;;;;5033566;28;20038;-62
2020/12/27 11:35:02;;;;;;;27.50;14.60;;;18.10;52.70;;;;;;5031044;28;20419;-62
2020/12/27 11:37:28;;;;;;;26.75;15.55;;;18.10;52.70;;;;;;5049070;28;20063;-62
2020/12/27 11:39:53;;;;;;;27.38;14.38;;;18.10;52.60;;;;;;5024064;28;20033;-62
2020/12/27 11:42:19;;;;;;;25.20;14.27;;;18.10;52.60;;;;;;5041632;28;20130;-62
2020/12/27 11:44:44;;;;;;;23.15;14.55;;;18.10;52.60;;;;;;5030508;28;20041;-60
2020/12/27 11:47:10;;;;;;;24.27;13.25;;;18.10;52.50;;;;;;5037865;28;20045;-60
2020/12/27 11:49:35;;;;;;;23.77;13.93;;;18.10;52.30;;;;;;5042497;28;20080;-62
2020/12/27 11:52:01;;;;;;;21.77;12.63;;;18.20;52.40;;;;;;5027588;28;20073;-62
2020/12/27 11:54:26;;;;;;;22.17;12.90;;;18.20;52.40;;;;;;5043987;28;20035;-61
2020/12/27 11:56:55;;;;;;;22.50;12.05;;;18.10;52.30;;;;;;5034962;28;20037;-63
2020/12/27 11:59:21;;;;;;;19.58;12.05;;;18.20;52.30;;;;;;5036509;28;20567;-62
2020/12/27 12:01:46;;;;;;;19.17;11.60;;;18.10;52.30;;;;;;5032478;28;20037;-63
2020/12/27 12:04:12;;;;;;;17.05;10.43;;;18.10;52.30;;;;;;5047139;28;20047;-61
2020/12/27 12:06:37;;;;;;;18.08;11.70;;;18.10;52.20;;;;;;5035476;28;20029;-61
2020/12/27 12:09:03;;;;;;;20.08;12.02;;;18.10;52.30;;;;;;5027625;28;20050;-61
2020/12/27 12:11:35;;;;;;;18.10;11.00;;;18.10;52.30;;;;;;5026914;28;20082;-62
2020/12/27 12:14:00;;;;;;;17.67;11.90;;;18.10;52.20;;;;;;5033348;28;20222;-61
2020/12/27 12:16:27;;;;;;;17.80;10.40;;;18.10;52.20;;;;;;5037121;28;20033;-61
2020/12/27 12:18:53;;;;;;;19.30;10.48;;;18.10;52.20;;;;;;5046596;28;20037;-61
2020/12/27 12:21:18;;;;;;;15.88;9.90;;;18.10;52.10;;;;;;5046044;28;20033;-62
2020/12/27 12:23:44;;;;;;;16.17;10.25;;;18.10;52.20;;;;;;5031514;28;20103;-61
2020/12/27 12:26:09;;;;;;;14.45;10.02;;;18.10;52.20;;;;;;5036898;28;20041;-62
2020/12/27 12:28:35;;;;;;;17.95;9.70;;;18.10;52.20;;;;;;5045475;28;20041;-61
2020/12/27 12:31:00;;;;;;;15.15;10.00;;;18.10;52.20;;;;;;5046204;28;20037;-62
2020/12/27 12:33:26;;;;;;;14.80;10.02;;;18.00;52.20;;;;;;5026919;28;20025;-61
2020/12/27 12:35:51;;;;;;;15.93;10.23;;;18.00;52.20;;;;;;5028634;28;20056;-61
2020/12/27 12:38:16;;;;;;;15.85;8.82;;;18.00;52.20;;;;;;5028110;28;20053;-63
2020/12/27 12:40:42;;;;;;;14.57;9.50;;;18.00;52.20;;;;;;5027865;28;20598;-62